Time;durP1;ratioP1;P1;durP2;ratioP2;P2;SDS_P1;SDS_P2;PMS_P1;PMS_P2;Temp;Humidity;BMP_temperature;BMP_pressure;BME280_temperature;BME280_humidity;BME280_pressure;Samples;Min_cycle;Max_cycle;Signal;HPM_P1;HPM_P2
2022/02/19 00:01:55;;;;;;;;;;;21.20;99.90;;;;;;5092677;28;19912;-73
2022/02/19 00:04:21;;;;;;;;;;;21.20;99.90;;;;;;5092596;28;20260;-71
2022/02/19 00:06:48;;;;;;;;;;;21.20;99.90;;;;;;5092771;28;19962;-71
2022/02/19 00:09:14;;;;;;;;;;;21.10;99.90;;;;;;5092353;28;19908;-71
2022/02/19 00:11:41;;;;;;;;;;;21.10;99.90;;;;;;5092587;28;20362;-72
2022/02/19 00:14:08;;;;;;;;;;;21.10;99.90;;;;;;5092431;28;19919;-71
2022/02/19 00:16:36;;;;;;;22.53;3.80;;;21.10;99.90;;;;;;5091022;28;20472;-71
2022/02/19 00:19:04;;;;;;;;;;;21.10;99.90;;;;;;5092780;28;19965;-70
2022/02/19 00:21:30;;;;;;;;;;;21.20;99.90;;;;;;5092751;28;20335;-71
2022/02/19 00:23:58;;;;;;;21.30;3.75;;;21.20;99.90;;;;;;5092217;28;19953;-71
2022/02/19 00:26:25;;;;;;;23.05;4.30;;;21.10;99.90;;;;;;5090944;28;20387;-71
2022/02/19 00:28:52;;;;;;;;;;;21.10;99.90;;;;;;5092420;28;20104;-72
2022/02/19 00:31:18;;;;;;;;;;;21.00;99.90;;;;;;5092484;28;19911;-73
2022/02/19 00:33:45;;;;;;;;;;;20.90;99.90;;;;;;5092507;28;19904;-71
2022/02/19 00:36:12;;;;;;;;;;;20.70;99.90;;;;;;5092331;28;20006;-71
2022/02/19 00:38:38;;;;;;;;;;;20.40;99.90;;;;;;5092331;28;19942;-71
2022/02/19 00:41:05;;;;;;;;;;;20.30;99.90;;;;;;5092063;28;19904;-71
2022/02/19 00:43:31;;;;;;;;;;;20.30;99.90;;;;;;5092267;28;20284;-72
2022/02/19 00:45:58;;;;;;;;;;;20.30;99.90;;;;;;5091856;28;19904;-72
2022/02/19 00:48:24;;;;;;;;;;;20.30;99.90;;;;;;5092368;28;20261;-71
2022/02/19 00:50:51;;;;;;;;;;;20.30;99.90;;;;;;5092398;28;19904;-72
2022/02/19 00:53:18;;;;;;;;;;;20.40;99.90;;;;;;5092006;28;20008;-71
2022/02/19 00:55:44;;;;;;;;;;;20.50;99.90;;;;;;5092353;28;19908;-72
2022/02/19 00:58:11;;;;;;;;;;;20.40;99.90;;;;;;5092282;28;19943;-72
2022/02/19 01:00:37;;;;;;;;;;;20.40;99.90;;;;;;5091956;28;19920;-72
2022/02/19 01:03:04;;;;;;;;;;;20.50;99.90;;;;;;5092297;28;19904;-72
2022/02/19 01:05:31;;;;;;;;;;;20.50;99.90;;;;;;5092240;28;19998;-72
2022/02/19 01:07:57;;;;;;;;;;;20.60;99.90;;;;;;5091922;28;19904;-72
2022/02/19 01:10:24;;;;;;;;;;;20.60;99.90;;;;;;5096219;28;19932;-72
2022/02/19 01:12:50;;;;;;;;;;;20.70;99.90;;;;;;5096021;28;19908;-71
2022/02/19 01:15:17;;;;;;;;;;;20.70;99.90;;;;;;5095422;28;19963;-71
2022/02/19 01:17:44;;;;;;;;;;;20.70;99.90;;;;;;5096290;28;20023;-71
2022/02/19 01:20:11;;;;;;;;;;;20.70;99.90;;;;;;5095561;28;20330;-71
2022/02/19 01:22:45;;;;;;;;;;;20.80;99.90;;;;;;5095451;28;19904;-71
2022/02/19 01:25:12;;;;;;;;;;;20.80;99.90;;;;;;5095710;28;19904;-71
2022/02/19 01:27:39;;;;;;;;;;;20.90;99.90;;;;;;5095379;28;19926;-71
2022/02/19 01:30:07;;;;;;;;;;;21.00;99.90;;;;;;5095444;28;20798;-71
2022/02/19 01:32:33;;;;;;;;;;;21.00;99.90;;;;;;5095274;28;20278;-71
2022/02/19 01:35:00;;;;;;;;;;;21.10;99.90;;;;;;5095663;28;19904;-71
2022/02/19 01:37:27;;;;;;;;;;;21.10;99.90;;;;;;5095399;28;19912;-71
2022/02/19 01:39:53;;;;;;;;;;;21.20;99.90;;;;;;5095125;28;19904;-71
2022/02/19 01:42:20;;;;;;;;;;;21.20;99.90;;;;;;5095373;28;20267;-71
2022/02/19 01:44:48;;;;;;;;;;;21.30;99.90;;;;;;5095287;28;20351;-70
2022/02/19 01:47:17;;;;;;;;;;;21.30;99.90;;;;;;5095161;28;19904;-71
2022/02/19 01:49:44;;;;;;;;;;;21.30;99.90;;;;;;5095212;28;19904;-71
2022/02/19 01:52:11;;;;;;;;;;;21.30;99.90;;;;;;5094884;28;19908;-72
2022/02/19 01:54:39;;;;;;;;;;;21.30;99.90;;;;;;5094832;28;19904;-72
2022/02/19 01:57:06;;;;;;;;;;;21.40;99.90;;;;;;5094716;28;20262;-73
2022/02/19 01:59:36;;;;;;;15.73;3.22;;;21.40;99.90;;;;;;5094793;28;20425;-73
2022/02/19 02:02:04;;;;;;;17.77;3.30;;;21.40;99.90;;;;;;5094688;28;20020;-72
2022/02/19 02:04:33;;;;;;;18.25;2.47;;;21.50;99.90;;;;;;5094479;28;20036;-72
2022/02/19 02:07:02;;;;;;;16.13;2.70;;;21.50;99.90;;;;;;5094234;28;20099;-73
2022/02/19 02:09:30;;;;;;;18.55;3.53;;;21.50;99.90;;;;;;5094293;28;20036;-72
2022/02/19 02:11:58;;;;;;;18.17;3.05;;;21.50;99.90;;;;;;5094284;28;20454;-73
2022/02/19 02:14:25;;;;;;;15.20;2.17;;;21.50;99.90;;;;;;5094399;28;20024;-72
2022/02/19 02:16:52;;;;;;;11.18;2.33;;;21.50;99.90;;;;;;5094041;28;20047;-72
2022/02/19 02:19:20;;;;;;;15.85;3.30;;;21.50;99.90;;;;;;5092583;28;20419;-72
2022/02/19 02:21:47;;;;;;;21.30;3.53;;;21.50;99.90;;;;;;5092951;28;20032;-72
2022/02/19 02:24:14;;;;;;;16.02;3.00;;;21.50;99.90;;;;;;5093979;28;20020;-71
2022/02/19 02:26:43;;;;;;;23.58;3.72;;;21.60;99.90;;;;;;5094121;28;20458;-73
2022/02/19 02:29:11;;;;;;;17.45;3.70;;;21.60;99.90;;;;;;5094148;28;20154;-72
2022/02/19 02:31:39;;;;;;;14.43;2.85;;;21.50;99.90;;;;;;5093985;28;20378;-71
2022/02/19 02:34:06;;;;;;;15.15;2.58;;;21.50;99.90;;;;;;5093606;28;20032;-72
2022/02/19 02:36:33;;;;;;;14.68;2.60;;;21.60;99.90;;;;;;5093732;28;20907;-72
2022/02/19 02:39:02;;;;;;;18.63;3.50;;;21.70;99.90;;;;;;5093678;28;20016;-73
2022/02/19 02:41:29;;;;;;;17.25;3.00;;;21.80;99.90;;;;;;5093647;28;20020;-71
2022/02/19 02:43:57;;;;;;;31.58;3.70;;;21.80;99.90;;;;;;5093507;28;20065;-72
2022/02/19 02:46:24;;;;;;;14.88;3.63;;;22.00;99.90;;;;;;5093705;28;20056;-71
2022/02/19 02:48:51;;;;;;;15.25;3.00;;;22.10;99.90;;;;;;5092220;28;20847;-72
2022/02/19 02:51:19;;;;;;;16.05;2.83;;;22.20;99.90;;;;;;5093698;28;20110;-72
2022/02/19 02:53:46;;;;;;;19.38;3.45;;;22.20;99.90;;;;;;5093310;28;20441;-73
2022/02/19 02:56:14;;;;;;;13.50;2.95;;;22.20;99.90;;;;;;5093796;28;20127;-72
2022/02/19 02:58:42;;;;;;;15.65;3.63;;;22.30;99.90;;;;;;5093605;28;20385;-70
2022/02/19 03:01:09;;;;;;;17.27;3.25;;;22.30;99.90;;;;;;5093314;28;20045;-72
2022/02/19 03:03:37;;;;;;;12.30;2.78;;;22.40;99.90;;;;;;5093415;28;20040;-71
2022/02/19 03:06:05;;;;;;;14.77;2.70;;;22.40;99.90;;;;;;5093173;28;20085;-71
2022/02/19 03:08:33;;;;;;;17.70;2.85;;;22.50;99.90;;;;;;5093226;28;20028;-71
2022/02/19 03:11:01;;;;;;;16.48;3.03;;;22.60;99.90;;;;;;5093212;28;20463;-72
2022/02/19 03:13:29;;;;;;;18.08;3.53;;;22.70;99.90;;;;;;5093177;28;20032;-71
2022/02/19 03:15:56;;;;;;;20.88;3.33;;;22.90;99.90;;;;;;5092885;28;20024;-71
2022/02/19 03:18:24;;;;;;;13.80;2.20;;;23.10;99.90;;;;;;5093289;28;20032;-71
2022/02/19 03:20:51;;;;;;;18.77;3.65;;;23.10;99.90;;;;;;5093007;28;20494;-72
2022/02/19 03:23:18;;;;;;;16.67;3.08;;;23.20;99.90;;;;;;5093544;28;20030;-71
2022/02/19 03:25:46;;;;;;;16.30;3.67;;;23.30;99.90;;;;;;5093033;28;20352;-71
2022/02/19 03:28:13;;;;;;;12.73;2.88;;;23.30;99.90;;;;;;5092811;28;20058;-71
2022/02/19 03:30:41;;;;;;;14.32;3.42;;;23.30;99.90;;;;;;5092820;28;20036;-71
2022/02/19 03:33:08;;;;;;;17.58;3.25;;;23.40;99.90;;;;;;5091986;28;20095;-72
2022/02/19 03:35:35;;;;;;;11.07;2.50;;;23.50;99.90;;;;;;5092814;28;20020;-71
2022/02/19 03:38:02;;;;;;;14.35;3.10;;;23.40;99.90;;;;;;5092448;28;20028;-72
2022/02/19 03:40:30;;;;;;;16.77;2.85;;;23.30;99.90;;;;;;5092887;28;20020;-71
2022/02/19 03:42:57;;;;;;;;;;;23.30;99.90;;;;;;5093281;28;20031;-73
2022/02/19 03:45:23;;;;;;;;;;;23.30;99.90;;;;;;5093635;28;19919;-73
2022/02/19 03:47:50;;;;;;;;;;;23.10;99.90;;;;;;5092956;28;19904;-72
2022/02/19 03:50:17;;;;;;;;;;;23.00;99.90;;;;;;5093099;28;20367;-72
2022/02/19 03:52:44;;;;;;;;;;;22.90;99.90;;;;;;5092768;28;19950;-72
2022/02/19 03:55:11;;;;;;;;;;;22.80;99.90;;;;;;5092969;28;19962;-72
2022/02/19 03:57:38;;;;;;;;;;;22.70;99.90;;;;;;5092873;28;20006;-71
2022/02/19 04:00:06;;;;;;;;;;;22.40;99.90;;;;;;5092570;28;20297;-71
2022/02/19 04:02:32;;;;;;;;;;;22.10;99.90;;;;;;5093008;28;19911;-70
2022/02/19 04:04:59;;;;;;;;;;;21.90;99.90;;;;;;5092744;28;19904;-70
2022/02/19 04:07:26;;;;;;;;;;;21.60;99.90;;;;;;5092620;28;19908;-70
2022/02/19 04:09:52;;;;;;;;;;;21.40;99.90;;;;;;5092576;28;19904;-71
2022/02/19 04:12:19;;;;;;;;;;;21.40;99.90;;;;;;5092805;28;20407;-72
2022/02/19 04:14:45;;;;;;;;;;;21.50;99.90;;;;;;5092509;28;19995;-71
2022/02/19 04:17:12;;;;;;;;;;;21.50;99.90;;;;;;5092743;28;19912;-70
2022/02/19 04:19:39;;;;;;;;;;;21.60;99.90;;;;;;5092564;28;19904;-72
2022/02/19 04:22:05;;;;;;;;;;;21.70;99.90;;;;;;5091915;28;19995;-71
2022/02/19 04:24:32;;;;;;;;;;;21.70;99.90;;;;;;5092694;28;19944;-71
2022/02/19 04:26:59;;;;;;;;;;;21.80;99.90;;;;;;5092818;28;19908;-71
2022/02/19 04:29:25;;;;;;;;;;;21.80;99.90;;;;;;5092584;28;19908;-71
2022/02/19 04:31:55;;;;;;;;;;;21.80;99.90;;;;;;5092487;28;19904;-72
2022/02/19 04:34:22;;;;;;;;;;;21.80;99.90;;;;;;5092543;28;19908;-72
2022/02/19 04:36:49;;;;;;;;;;;21.80;99.90;;;;;;5092265;28;19912;-72
2022/02/19 04:39:16;;;;;;;;;;;21.90;99.90;;;;;;5092256;28;20437;-71
2022/02/19 04:41:43;;;;;;;;;;;22.00;99.90;;;;;;5092340;28;19931;-72
2022/02/19 04:44:10;;;;;;;;;;;22.00;99.90;;;;;;5094112;28;19904;-72
2022/02/19 04:46:36;;;;;;;;;;;22.10;99.90;;;;;;5096577;28;19908;-72
2022/02/19 04:49:03;;;;;;;;;;;22.00;99.90;;;;;;5096750;28;19911;-71
2022/02/19 04:51:30;;;;;;;;;;;22.10;99.90;;;;;;5096278;28;20052;-70
2022/02/19 04:53:56;;;;;;;;;;;22.20;99.90;;;;;;5096016;28;20269;-72
2022/02/19 04:56:23;;;;;;;;;;;22.20;99.90;;;;;;5096398;28;19950;-70
2022/02/19 04:58:50;;;;;;;;;;;22.20;99.90;;;;;;5096360;28;19912;-71
2022/02/19 05:01:16;;;;;;;;;;;22.30;99.90;;;;;;5096175;28;19920;-71
2022/02/19 05:03:43;;;;;;;;;;;22.40;99.90;;;;;;5096190;28;19904;-71
2022/02/19 05:06:13;;;;;;;;;;;22.40;99.90;;;;;;5095725;28;19911;-71
2022/02/19 05:08:43;;;;;;;;;;;22.50;99.90;;;;;;5096186;28;19926;-71
2022/02/19 05:11:10;;;;;;;;;;;22.40;99.90;;;;;;5096162;28;20350;-71
2022/02/19 05:13:36;;;;;;;;;;;22.30;99.90;;;;;;5096140;28;19908;-71
2022/02/19 05:16:04;;;;;;;;;;;22.30;99.90;;;;;;5095784;28;19904;-71
2022/02/19 05:18:30;;;;;;;;;;;22.30;99.90;;;;;;5095766;28;19915;-71
2022/02/19 05:20:57;;;;;;;;;;;22.30;99.90;;;;;;5095629;28;19926;-71
2022/02/19 05:23:24;;;;;;;;;;;22.30;99.90;;;;;;5095731;28;19989;-71
2022/02/19 05:25:51;;;;;;;;;;;22.30;99.90;;;;;;5095744;28;20240;-71
2022/02/19 05:28:17;;;;;;;;;;;22.20;99.90;;;;;;5095366;28;19904;-71
2022/02/19 05:30:44;;;;;;;;;;;22.20;99.90;;;;;;5095725;28;19904;-71
2022/02/19 05:33:11;;;;;;;;;;;22.20;99.90;;;;;;5095966;28;20003;-71
2022/02/19 05:35:39;;;;;;;;;;;22.20;99.90;;;;;;5095303;28;20318;-71
2022/02/19 05:38:05;;;;;;;;;;;22.20;99.90;;;;;;5095307;28;20158;-71
2022/02/19 05:40:32;;;;;;;;;;;22.30;99.90;;;;;;5095323;28;19904;-71
2022/02/19 05:42:59;;;;;;;;;;;22.30;99.90;;;;;;5095425;28;19911;-71
2022/02/19 05:45:25;;;;;;;;;;;22.30;99.90;;;;;;5095285;28;20374;-72
2022/02/19 05:47:52;;;;;;;;;;;22.30;99.90;;;;;;5095045;28;19905;-71
2022/02/19 05:50:19;;;;;;;;;;;22.30;99.90;;;;;;5095272;28;19904;-71
2022/02/19 05:52:45;;;;;;;;;;;22.30;99.90;;;;;;5095145;28;19904;-71
2022/02/19 05:55:12;;;;;;;;;;;22.30;99.90;;;;;;5094002;28;19965;-72
2022/02/19 05:57:42;;;;;;;;;;;22.30;99.90;;;;;;5094977;28;20771;-71
2022/02/19 06:00:10;;;;;;;;;;;22.30;99.90;;;;;;5094679;28;19964;-71
2022/02/19 06:02:36;;;;;;;;;;;22.30;99.90;;;;;;5094965;28;19908;-71
2022/02/19 06:05:03;;;;;;;;;;;22.30;99.90;;;;;;5095198;28;19904;-72
2022/02/19 06:07:30;;;;;;;;;;;22.30;99.90;;;;;;5094810;28;19910;-72
2022/02/19 06:09:57;;;;;;;;;;;22.30;99.90;;;;;;5094654;28;20346;-72
2022/02/19 06:12:23;;;;;;;;;;;22.30;99.90;;;;;;5094845;28;20346;-70
2022/02/19 06:14:50;;;;;;;;;;;22.30;99.90;;;;;;5094949;28;20003;-72
2022/02/19 06:17:17;;;;;;;;;;;22.30;99.90;;;;;;5094626;28;19951;-73
2022/02/19 06:19:43;;;;;;;;;;;22.30;99.90;;;;;;5094593;28;20286;-72
2022/02/19 06:22:10;;;;;;;;;;;22.30;99.90;;;;;;5094458;28;19949;-72
2022/02/19 06:24:38;;;;;;;;;;;22.30;99.90;;;;;;5094734;28;19904;-73
2022/02/19 06:27:05;;;;;;;;;;;22.30;99.90;;;;;;5094579;28;19908;-72
2022/02/19 06:29:31;;;;;;;;;;;22.40;99.90;;;;;;5094414;28;19938;-71
2022/02/19 06:31:58;;;;;;;;;;;22.30;99.90;;;;;;5094464;28;19904;-70
2022/02/19 06:34:25;;;;;;;;;;;22.30;99.90;;;;;;5094505;28;19927;-71
2022/02/19 06:36:51;;;;;;;;;;;22.30;99.90;;;;;;5094429;28;19908;-70
2022/02/19 06:39:18;;;;;;;;;;;22.40;99.90;;;;;;5094458;28;20532;-71
2022/02/19 06:41:45;;;;;;;;;;;22.40;99.90;;;;;;5094192;28;20244;-72
2022/02/19 06:44:11;;;;;;;;;;;22.40;99.90;;;;;;5094210;28;19904;-71
2022/02/19 06:46:38;;;;;;;;;;;22.40;99.90;;;;;;5094312;28;19995;-72
2022/02/19 06:49:05;;;;;;;;;;;22.40;99.90;;;;;;5094118;28;19949;-71
2022/02/19 06:51:31;;;;;;;;;;;22.30;99.90;;;;;;5094106;28;19908;-71
2022/02/19 06:53:58;;;;;;;;;;;22.40;99.90;;;;;;5093894;28;19911;-71
2022/02/19 06:56:25;;;;;;;;;;;22.50;99.90;;;;;;5092760;28;20296;-71
2022/02/19 06:58:52;;;;;;;;;;;22.40;99.90;;;;;;5093857;28;20373;-71
2022/02/19 07:01:20;;;;;;;;;;;22.40;99.90;;;;;;5093833;28;19920;-71
2022/02/19 07:03:46;;;;;;;;;;;22.40;99.90;;;;;;5093680;28;19908;-72
2022/02/19 07:06:13;;;;;;;;;;;22.40;99.90;;;;;;5093239;28;19911;-71
2022/02/19 07:08:40;;;;;;;;;;;22.40;99.90;;;;;;5093632;28;19910;-71
2022/02/19 07:11:06;;;;;;;;;;;22.40;99.90;;;;;;5093760;28;19930;-71
2022/02/19 07:13:33;;;;;;;;;;;22.50;99.90;;;;;;5093636;28;19908;-71
2022/02/19 07:16:02;;;;;;;;;;;22.50;99.90;;;;;;5093530;28;19904;-71
2022/02/19 07:18:29;;;;;;;;;;;22.50;99.90;;;;;;5093577;28;19908;-71
2022/02/19 07:20:55;;;;;;;;;;;22.50;99.90;;;;;;5093563;28;19949;-71
2022/02/19 07:23:22;;;;;;;;;;;22.40;99.90;;;;;;5092235;28;20282;-71
2022/02/19 07:25:49;;;;;;;;;;;22.50;99.90;;;;;;5093235;28;19904;-72
2022/02/19 07:28:15;;;;;;;;;;;22.40;99.90;;;;;;5093512;28;19965;-71
2022/02/19 07:30:43;;;;;;;;;;;22.40;99.90;;;;;;5093344;28;19947;-72
2022/02/19 07:33:10;;;;;;;;;;;22.50;99.90;;;;;;5093052;28;19911;-71
2022/02/19 07:35:38;;;;;;;;;;;22.40;99.90;;;;;;5092939;28;20012;-72
2022/02/19 07:38:04;;;;;;;;;;;22.40;99.90;;;;;;5093253;28;19919;-71
2022/02/19 07:40:31;;;;;;;;;;;22.30;99.90;;;;;;5093280;28;19904;-72
2022/02/19 07:42:58;;;;;;;;;;;22.30;99.90;;;;;;5093297;28;19911;-71
2022/02/19 07:45:24;;;;;;;;;;;22.30;99.90;;;;;;5093242;28;19904;-71
2022/02/19 07:47:51;;;;;;;;;;;22.30;99.90;;;;;;5092895;28;20060;-71
2022/02/19 07:58:35;;;;;;;;;;;22.20;99.90;;;;;;5093293;28;20285;-72
2022/02/19 08:01:03;;;;;;;;;;;22.20;99.90;;;;;;5092741;28;19916;-71
2022/02/19 08:03:31;;;;;;;;;;;22.30;99.90;;;;;;5092631;28;20743;-71
2022/02/19 08:05:58;;;;;;;;;;;22.30;99.90;;;;;;5092566;28;19904;-72
2022/02/19 08:08:25;;;;;;;;;;;22.20;99.90;;;;;;5092622;28;19904;-71
2022/02/19 08:10:52;;;;;;;;;;;22.20;99.90;;;;;;5092723;28;19904;-72
2022/02/19 08:13:20;;;;;;;;;;;22.20;99.90;;;;;;5092834;28;19956;-73
2022/02/19 08:15:47;;;;;;;;;;;22.20;99.90;;;;;;5092399;28;19911;-72
2022/02/19 08:18:14;;;;;;;;;;;22.20;99.90;;;;;;5092088;28;20054;-72
2022/02/19 08:20:41;;;;;;;;;;;22.20;99.90;;;;;;5092839;28;19981;-71
2022/02/19 08:23:09;;;;;;;;;;;22.20;99.90;;;;;;5092599;28;20274;-70
2022/02/19 08:25:36;;;;;;;;;;;22.20;99.90;;;;;;5092523;28;19912;-71
2022/02/19 08:28:05;;;;;;;;;;;22.20;99.90;;;;;;5092020;28;20400;-71
2022/02/19 08:30:33;;;;;;;;;;;22.20;99.90;;;;;;5092279;28;19965;-70
2022/02/19 08:33:00;;;;;;;;;;;22.10;99.90;;;;;;5092527;28;19904;-71
2022/02/19 08:35:26;;;;;;;;;;;22.10;99.90;;;;;;5092216;28;20418;-70
2022/02/19 08:37:53;;;;;;;;;;;22.10;99.90;;;;;;5092196;28;20408;-70
2022/02/19 08:40:21;;;;;;;;;;;22.10;99.90;;;;;;5092478;28;19961;-71
2022/02/19 08:42:48;;;;;;;;;;;22.20;99.90;;;;;;5092620;28;20338;-71
2022/02/19 08:45:15;;;;;;;;;;;22.20;99.90;;;;;;5092394;28;20270;-71
2022/02/19 08:47:42;;;;;;;;;;;22.10;99.90;;;;;;5092216;28;19904;-72
2022/02/19 08:50:12;;;;;;;;;;;22.10;99.90;;;;;;5092209;28;19908;-71
2022/02/19 08:52:39;;;;;;;;;;;22.10;99.90;;;;;;5092347;28;19949;-71
2022/02/19 08:55:07;;;;;;;;;;;22.10;99.90;;;;;;5092518;28;19916;-71
2022/02/19 08:57:33;;;;;;;;;;;22.10;99.90;;;;;;5092177;28;19912;-71
2022/02/19 09:00:00;;;;;;;;;;;22.10;99.90;;;;;;5091818;28;19916;-70
2022/02/19 09:02:27;;;;;;;;;;;22.20;99.90;;;;;;5092399;28;19904;-71
2022/02/19 09:04:53;;;;;;;;;;;22.20;99.90;;;;;;5093915;28;19908;-70
2022/02/19 09:07:20;;;;;;;;;;;22.20;99.90;;;;;;5092061;28;20279;-71
2022/02/19 09:09:47;;;;;;;;;;;22.10;99.90;;;;;;5091622;28;19904;-71
2022/02/19 09:12:14;;;;;;;;;;;22.10;99.90;;;;;;5090113;28;20496;-71
2022/02/19 09:14:41;;;;;;;;;;;22.10;99.90;;;;;;5090168;28;19990;-71
2022/02/19 09:17:08;;;;;;;;;;;22.10;99.90;;;;;;5090177;28;19915;-71
2022/02/19 09:19:34;;;;;;;;;;;22.10;99.90;;;;;;5089904;28;19958;-71
2022/02/19 09:22:02;;;;;;;;;;;22.10;99.90;;;;;;5089233;28;19911;-71
2022/02/19 09:24:29;;;;;;;;;;;22.10;99.90;;;;;;5091118;28;19904;-72
2022/02/19 09:26:56;;;;;;;;;;;22.10;99.90;;;;;;5092033;28;19950;-71
2022/02/19 09:29:25;;;;;;;;;;;22.10;99.90;;;;;;5093123;28;19908;-71
2022/02/19 09:31:52;;;;;;;;;;;22.20;99.90;;;;;;5095540;28;19904;-72
2022/02/19 09:34:22;;;;;;;;;;;22.20;99.90;;;;;;5095449;28;19904;-71
2022/02/19 09:36:49;;;;;;;;;;;22.20;99.90;;;;;;5095403;28;19919;-71
2022/02/19 09:39:16;;;;;;;;;;;22.20;99.90;;;;;;5095361;28;19914;-71
2022/02/19 09:41:43;;;;;;;;;;;22.10;99.90;;;;;;5095340;28;19904;-71
2022/02/19 09:44:10;;;;;;;;;;;22.10;99.90;;;;;;5095211;28;19958;-71
2022/02/19 09:46:37;;;;;;;;;;;22.10;99.90;;;;;;5095430;28;19910;-71
2022/02/19 09:49:05;;;;;;;;;;;22.10;99.90;;;;;;5095837;27;19935;-71
2022/02/19 09:51:32;;;;;;;;;;;22.10;99.90;;;;;;5095306;28;19908;-71
2022/02/19 09:53:58;;;;;;;;;;;22.10;99.90;;;;;;5095177;28;20354;-71
2022/02/19 09:56:28;;;;;;;;;;;22.10;99.90;;;;;;5095277;28;20366;-71
2022/02/19 09:58:55;;;;;;;;;;;22.10;99.90;;;;;;5095120;28;19908;-71
2022/02/19 10:01:23;;;;;;;;;;;22.10;99.90;;;;;;5094836;28;19958;-71
2022/02/19 10:04:02;;;;;;;;;;;22.10;99.90;;;;;;5094852;28;19943;-71
2022/02/19 10:06:33;;;;;;;;;;;22.10;99.90;;;;;;5094982;28;19904;-71
2022/02/19 10:09:13;;;;;;;;;;;22.10;99.90;;;;;;5095295;28;19904;-71
2022/02/19 10:11:41;;;;;;;;;;;22.10;99.90;;;;;;5095004;28;19939;-71
2022/02/19 10:14:28;;;;;;;;;;;22.10;99.90;;;;;;5094747;28;19949;-71
2022/02/19 10:17:24;;;;;;;;;;;22.20;99.90;;;;;;5094715;28;19916;-71
2022/02/19 10:19:53;;;;;;;;;;;22.10;99.90;;;;;;5094497;28;19903;-71
2022/02/19 10:22:21;;;;;;;;;;;22.10;99.90;;;;;;5094782;28;19904;-71
2022/02/19 10:24:50;;;;;;;;;;;22.20;99.90;;;;;;5094590;28;20352;-71
2022/02/19 10:27:17;;;;;;;;;;;22.20;99.90;;;;;;5094468;28;19904;-71
2022/02/19 10:29:47;;;;;;;;;;;22.20;99.90;;;;;;5094461;28;19911;-71
2022/02/19 10:32:15;;;;;;;;;;;22.20;99.90;;;;;;5094564;28;19904;-71
2022/02/19 10:34:54;;;;;;;;;;;22.20;99.90;;;;;;5094398;28;20347;-71
2022/02/19 10:37:25;;;;;;;;;;;22.20;99.90;;;;;;5094383;28;20309;-71
2022/02/19 10:39:52;;;;;;;;;;;22.20;99.90;;;;;;5094121;28;19910;-72
2022/02/19 10:42:30;;;;;;;;;;;22.20;99.90;;;;;;5093686;28;19999;-71
2022/02/19 10:44:57;;;;;;;;;;;22.20;99.90;;;;;;5094197;28;19908;-71
2022/02/19 10:47:26;;;;;;;;;;;22.20;99.90;;;;;;5094278;28;19904;-70
2022/02/19 10:50:08;;;;;;;;;;;22.20;99.90;;;;;;5093849;28;19904;-71
2022/02/19 10:52:35;;;;;;;;;;;22.10;99.90;;;;;;5094214;28;19991;-71
2022/02/19 10:55:09;;;;;;;;;;;22.20;99.90;;;;;;5094046;28;19951;-71
2022/02/19 10:57:37;;;;;;;;;;;22.10;99.90;;;;;;5093931;28;19915;-71
2022/02/19 11:00:17;;;;;;;;;;;22.10;99.90;;;;;;5093784;28;20010;-71
2022/02/19 11:02:46;;;;;;;;;;;22.10;99.90;;;;;;5093974;28;19994;-71
2022/02/19 11:05:13;;;;;;;;;;;22.10;99.90;;;;;;5092520;28;19911;-71
2022/02/19 11:07:41;;;;;;;;;;;22.10;99.90;;;;;;5093901;28;19904;-71
2022/02/19 11:10:08;;;;;;;;;;;22.10;99.90;;;;;;5093585;28;19933;-71
2022/02/19 11:12:35;;;;;;;;;;;22.10;99.90;;;;;;5093624;28;19908;-71
2022/02/19 11:15:02;;;;;;;;;;;22.10;99.90;;;;;;5093616;28;19904;-71
2022/02/19 11:17:34;;;;;;;;;;;22.00;99.90;;;;;;5093514;28;19912;-72
2022/02/19 11:20:05;;;;;;;;;;;22.10;99.90;;;;;;5093440;28;19911;-71
2022/02/19 11:22:34;;;;;;;;;;;22.10;99.90;;;;;;5093503;28;20358;-72
2022/02/19 11:25:02;;;;;;;;;;;22.10;99.90;;;;;;5093597;28;19911;-71
2022/02/19 11:27:31;;;;;;;;;;;22.10;99.90;;;;;;5093345;28;19949;-71
2022/02/19 11:30:01;;;;;;;;;;;22.10;99.90;;;;;;5093074;28;20002;-71
2022/02/19 11:32:28;;;;;;;;;;;22.10;99.90;;;;;;5093506;28;19904;-71
2022/02/19 11:34:55;;;;;;;;;;;22.10;99.90;;;;;;5093135;28;20247;-72
2022/02/19 11:37:22;;;;;;;;;;;22.10;99.90;;;;;;5093245;28;19919;-72
2022/02/19 11:40:02;;;;;;;;;;;22.10;99.90;;;;;;5093263;28;19904;-71
2022/02/19 11:42:36;;;;;;;;;;;22.10;99.90;;;;;;5093190;28;19957;-71
2022/02/19 11:45:22;;;;;;;;;;;22.20;99.90;;;;;;5093153;28;19904;-71
2022/02/19 11:47:50;;;;;;;;;;;22.10;99.90;;;;;;5092777;28;19991;-71
2022/02/19 11:50:25;;;;;;;;;;;22.20;99.90;;;;;;5092886;28;19903;-71
2022/02/19 11:53:10;;;;;;;;;;;22.20;99.90;;;;;;5092363;28;19935;-71
2022/02/19 11:55:38;;;;;;;;;;;22.20;99.90;;;;;;5092927;28;19926;-71
2022/02/19 11:58:06;;;;;;;;;;;22.20;99.90;;;;;;5092707;28;19916;-71
2022/02/19 12:00:58;;;;;;;;;;;22.20;99.90;;;;;;5092692;28;20014;-70
2022/02/19 12:03:30;;;;;;;;;;;22.20;99.90;;;;;;5084069;28;19911;-71
2022/02/19 12:06:15;;;;;;;;;;;22.20;99.90;;;;;;5092499;28;19904;-71
2022/02/19 12:08:48;;;;;;;;;;;22.10;99.90;;;;;;5091537;28;19904;-71
2022/02/19 12:11:14;;;;;;;;;;;22.20;99.90;;;;;;5092818;28;20094;-71
2022/02/19 12:13:45;;;;;;;;;;;22.10;99.90;;;;;;5092750;28;19957;-71
2022/02/19 12:16:39;;;;;;;;;;;22.10;99.90;;;;;;5092533;28;19912;-71
2022/02/19 12:19:10;;;;;;;;;;;22.20;99.90;;;;;;5092571;28;19918;-71
2022/02/19 12:21:44;;;;;;;;;;;22.20;99.90;;;;;;5092553;28;19908;-71
2022/02/19 12:24:25;;;;;;;;;;;22.20;99.90;;;;;;5092395;28;19911;-70
2022/02/19 12:26:55;;;;;;;;;;;22.20;99.90;;;;;;5092709;28;20002;-70
2022/02/19 12:29:22;;;;;;;;;;;22.20;99.90;;;;;;5092667;28;19904;-71
2022/02/19 12:32:05;;;;;;;;;;;22.20;99.90;;;;;;5092468;28;19912;-71
2022/02/19 12:34:33;;;;;;;;;;;22.20;99.90;;;;;;5092355;28;20263;-71
2022/02/19 12:37:00;;;;;;;;;;;22.20;99.90;;;;;;5092429;28;19908;-71
2022/02/19 12:39:27;;;;;;;;;;;22.20;99.90;;;;;;5092698;28;19912;-71
2022/02/19 12:41:57;;;;;;;;;;;22.20;99.90;;;;;;5092179;28;20006;-71
2022/02/19 12:44:24;;;;;;;;;;;22.20;99.90;;;;;;5092373;28;20339;-71
2022/02/19 12:46:55;;;;;;;;;;;22.10;99.90;;;;;;5092346;28;19908;-71
2022/02/19 12:49:26;;;;;;;;;;;22.20;99.90;;;;;;5092202;28;19905;-71
2022/02/19 12:52:02;;;;;;;;;;;22.20;99.90;;;;;;5092179;28;19904;-71
2022/02/19 12:54:37;;;;;;;;;;;22.20;99.90;;;;;;5092448;28;19911;-72
2022/02/19 12:57:04;;;;;;;;;;;22.10;99.90;;;;;;5092249;28;19935;-71
2022/02/19 12:59:32;;;;;;;;;;;22.20;99.90;;;;;;5092265;28;19908;-71
2022/02/19 13:02:00;;;;;;;;;;;22.10;99.90;;;;;;5092148;28;20037;-71
2022/02/19 13:04:27;;;;;;;;;;;22.10;99.90;;;;;;5093000;28;19908;-71
2022/02/19 13:06:54;;;;;;;;;;;22.10;99.90;;;;;;5096226;28;19969;-71
2022/02/19 13:09:21;;;;;;;;;;;22.10;99.90;;;;;;5096132;28;19946;-71
2022/02/19 13:11:51;;;;;;;;;;;22.10;99.90;;;;;;5095762;28;19904;-71
2022/02/19 13:14:17;;;;;;;;;;;22.10;99.90;;;;;;5096091;28;19904;-71
2022/02/19 13:16:57;;;;;;;;;;;22.10;99.90;;;;;;5095993;28;20251;-71
2022/02/19 13:19:24;;;;;;;;;;;22.00;99.90;;;;;;5095733;28;19949;-71
2022/02/19 13:22:03;;;;;;;;;;;22.10;99.90;;;;;;5095643;28;19904;-71
2022/02/19 13:24:30;;;;;;;;;;;22.00;99.90;;;;;;5096041;28;19927;-71
2022/02/19 13:27:13;;;;;;;;;;;22.00;99.90;;;;;;5095859;28;19911;-71
2022/02/19 13:29:40;;;;;;;;;;;22.00;99.90;;;;;;5095914;28;19904;-71
2022/02/19 13:32:07;;;;;;;;;;;22.00;99.90;;;;;;5095610;28;20350;-71
2022/02/19 13:34:38;;;;;;;;;;;22.10;99.90;;;;;;5095514;28;20367;-71
2022/02/19 13:37:05;;;;;;;;;;;22.00;99.90;;;;;;5095812;28;19955;-71
2022/02/19 13:39:39;;;;;;;;;;;22.00;99.90;;;;;;5095650;28;19911;-71
2022/02/19 13:42:06;;;;;;;;;;;22.00;99.90;;;;;;5095600;28;20439;-70
2022/02/19 13:44:53;;;;;;;;;;;22.00;99.90;;;;;;5095523;28;20350;-70
2022/02/19 13:47:20;;;;;;;;;;;22.00;99.90;;;;;;5095379;28;20273;-71
2022/02/19 13:49:48;;;;;;;;;;;22.00;99.90;;;;;;5095084;28;19950;-70
2022/02/19 13:52:44;;;;;;;;;;;22.00;99.90;;;;;;5095289;28;20434;-70
2022/02/19 13:55:12;;;;;;;;;;;22.00;99.90;;;;;;5090525;28;19908;-71
2022/02/19 13:57:39;;;;;;;;;;;22.00;99.90;;;;;;5095333;28;20358;-71
2022/02/19 14:00:08;;;;;;;;;;;22.00;99.90;;;;;;5094841;28;19916;-71
2022/02/19 14:02:35;;;;;;;;;;;22.10;99.90;;;;;;5095048;28;19908;-71
2022/02/19 14:05:03;;;;;;;;;;;22.00;99.90;;;;;;5094811;28;19904;-71
2022/02/19 14:07:30;;;;;;;;;;;22.00;99.90;;;;;;5095093;28;19999;-71
2022/02/19 14:10:07;;;;;;;;;;;22.00;99.90;;;;;;5094705;28;19914;-71
2022/02/19 14:12:38;;;;;;;;;;;22.00;99.90;;;;;;5095061;28;19908;-71
2022/02/19 14:15:05;;;;;;;;;;;22.00;99.90;;;;;;5095025;28;19949;-72
2022/02/19 14:17:43;;;;;;;;;;;22.10;99.90;;;;;;5093811;28;20377;-72